createdAt,value
2022-10-23T08:38:26.342Z,18.19
2022-10-23T08:40:59.762Z,18.42
2022-10-23T08:43:35.237Z,18.40
2022-10-23T08:46:09.525Z,18.18
2022-10-23T08:48:42.807Z,18.43
2022-10-23T08:51:16.949Z,18.57
2022-10-23T08:53:53.250Z,18.97
2022-10-23T08:56:26.119Z,19.08
2022-10-23T08:58:58.231Z,18.95
2022-10-23T09:01:36.095Z,18.91
2022-10-23T09:04:03.916Z,19.44
2022-10-23T09:06:36.501Z,18.99
2022-10-23T09:09:22.610Z,19.20
2022-10-23T09:11:57.634Z,19.62
2022-10-23T09:14:50.993Z,19.43
2022-10-23T09:17:24.202Z,19.44
2022-10-23T09:19:56.000Z,19.51
2022-10-23T09:22:22.645Z,20.08
2022-10-23T09:24:53.743Z,19.38
2022-10-23T09:27:20.717Z,19.48
2022-10-23T09:29:49.298Z,19.95
2022-10-23T09:32:16.012Z,20.37
2022-10-23T09:34:52.022Z,19.92
2022-10-23T09:37:23.141Z,19.89
2022-10-23T09:40:01.729Z,19.88
2022-10-23T09:42:28.481Z,19.49
2022-10-23T09:44:55.615Z,20.08
2022-10-23T09:47:24.375Z,20.13
2022-10-23T09:49:53.021Z,20.44
2022-10-23T09:52:28.597Z,19.52
2022-10-23T09:54:59.075Z,19.80
2022-10-23T09:57:31.713Z,20.11
2022-10-23T10:00:01.795Z,19.84
2022-10-23T10:02:32.532Z,20.29
2022-10-23T10:04:59.203Z,20.51
2022-10-23T10:07:29.368Z,20.70
2022-10-23T10:09:59.647Z,19.99
2022-10-23T10:12:44.686Z,20.25
2022-10-23T10:15:22.591Z,20.40
2022-10-23T10:17:59.659Z,20.29
2022-10-23T10:20:48.020Z,20.20
2022-10-23T10:23:25.839Z,20.39
2022-10-23T10:26:02.416Z,20.25
2022-10-23T10:28:51.864Z,20.52
2022-10-23T10:31:26.289Z,20.57
2022-10-23T10:34:01.972Z,20.14
2022-10-23T10:36:46.720Z,20.54
2022-10-23T10:39:24.395Z,20.35
2022-10-23T10:42:07.860Z,20.30
2022-10-23T10:44:47.061Z,19.98
2022-10-23T10:47:21.247Z,20.11
2022-10-23T10:49:59.804Z,20.48
2022-10-23T10:52:34.255Z,20.39
2022-10-23T10:55:10.390Z,20.61
2022-10-23T10:58:16.562Z,20.76
2022-10-23T11:00:47.235Z,20.99
2022-10-23T11:03:27.743Z,20.70
2022-10-23T11:06:00.986Z,20.85
2022-10-23T11:08:44.458Z,20.70
2022-10-23T11:11:28.767Z,21.19
2022-10-23T11:13:57.014Z,21.14
2022-10-23T11:16:35.616Z,20.60
2022-10-23T11:19:14.442Z,20.46
2022-10-23T11:21:46.610Z,21.02
2022-10-23T11:24:55.882Z,21.04
2022-10-23T11:27:52.112Z,21.14
2022-10-23T11:30:35.808Z,21.44
2022-10-23T11:33:43.957Z,21.50
2022-10-23T11:37:10.753Z,21.75
2022-10-23T11:40:04.060Z,22.07
2022-10-23T11:42:50.830Z,21.58
2022-10-23T11:45:54.672Z,22.06
2022-10-23T11:49:09.872Z,22.31
2022-10-23T12:03:59.339Z,22.56
2022-10-23T12:06:29.626Z,22.45
2022-10-23T12:09:01.593Z,22.88
2022-10-23T12:11:41.127Z,22.88
2022-10-23T12:14:40.500Z,22.89
2022-10-23T12:17:29.215Z,23.03
2022-10-23T12:20:04.488Z,22.95
2022-10-23T12:22:42.885Z,23.36
2022-10-23T12:25:15.053Z,23.49
2022-10-23T12:27:51.565Z,23.38
2022-10-23T12:30:24.374Z,23.50
2022-10-23T12:33:06.837Z,23.53
2022-10-23T12:36:04.288Z,23.53
2022-10-23T12:38:34.063Z,22.71
2022-10-23T12:41:14.275Z,22.95
2022-10-23T12:43:49.936Z,22.78
2022-10-23T12:46:31.537Z,22.76
2022-10-23T12:49:00.686Z,22.81
2022-10-23T12:51:30.241Z,23.20
2022-10-23T12:53:58.348Z,23.75
2022-10-23T12:56:35.374Z,23.13
2022-10-23T12:59:03.000Z,22.81
2022-10-23T13:01:31.556Z,22.91
2022-10-23T13:04:02.878Z,22.79
2022-10-23T13:06:32.880Z,22.99
2022-10-23T13:09:00.645Z,22.92
2022-10-23T13:11:29.302Z,23.30
2022-10-23T13:14:12.509Z,23.02
2022-10-23T13:16:39.413Z,22.73
2022-10-23T13:19:06.203Z,22.75
2022-10-23T13:21:34.817Z,22.62
2022-10-23T13:24:19.803Z,22.63
2022-10-23T13:26:46.758Z,23.13
2022-10-23T13:29:20.812Z,22.99
2022-10-23T13:31:50.146Z,23.22
2022-10-23T13:37:40.192Z,23.83
2022-10-23T13:40:21.536Z,23.42
2022-10-23T13:42:48.918Z,23.42
2022-10-23T13:45:20.854Z,23.59
2022-10-23T13:47:47.875Z,23.55
2022-10-23T13:53:57.321Z,23.11
2022-10-23T13:56:25.756Z,23.51
2022-10-23T13:58:52.583Z,23.64
2022-10-23T14:01:22.340Z,23.21
2022-10-23T14:03:49.465Z,23.26
2022-10-23T14:06:20.721Z,23.40
2022-10-23T14:12:03.765Z,23.09
2022-10-23T14:14:30.734Z,23.27
2022-10-23T14:17:29.408Z,23.02
2022-10-23T14:20:12.744Z,23.09
2022-10-23T14:26:23.897Z,23.12
2022-10-23T14:28:54.291Z,22.97
2022-10-23T14:31:27.192Z,23.17
2022-10-23T14:33:59.182Z,23.41
2022-10-23T14:36:50.899Z,22.82
2022-10-23T14:42:56.060Z,23.14
2022-10-23T14:45:37.212Z,23.04
2022-10-23T14:55:37.514Z,22.32
2022-10-23T15:18:10.539Z,21.41
2022-10-23T15:20:38.082Z,21.76
2022-10-23T15:23:12.077Z,21.33
2022-10-23T15:26:06.047Z,21.25
2022-10-23T15:35:01.782Z,21.01
2022-10-23T15:37:31.322Z,21.00
2022-10-23T15:40:04.596Z,21.38
2022-10-23T15:42:37.961Z,21.07
2022-10-23T15:45:07.534Z,21.25
2022-10-23T15:47:34.932Z,20.89
2022-10-23T15:50:03.954Z,20.99
2022-10-23T15:52:31.461Z,20.86
2022-10-23T15:55:10.293Z,20.53
2022-10-23T15:57:37.733Z,20.67
2022-10-23T16:00:06.268Z,20.42
2022-10-23T16:02:37.816Z,20.46
2022-10-23T16:05:12.251Z,20.24
2022-10-23T16:07:39.136Z,20.28
2022-10-23T16:10:13.270Z,20.06
2022-10-23T16:12:47.317Z,19.95
2022-10-23T16:15:15.563Z,20.23
2022-10-23T16:17:42.738Z,20.21
2022-10-23T16:20:11.853Z,20.10
2022-10-23T16:22:41.374Z,20.04
2022-10-23T16:25:11.036Z,20.29
2022-10-23T16:27:38.523Z,20.22
2022-10-23T16:30:06.970Z,20.14
2022-10-23T16:32:36.126Z,20.09
2022-10-23T16:35:03.292Z,19.98
2022-10-23T16:37:31.661Z,19.97
2022-10-23T16:40:00.868Z,20.27
2022-10-23T16:42:28.052Z,20.12
2022-10-23T16:44:55.438Z,20.15
2022-10-23T16:47:22.769Z,20.04
2022-10-23T16:50:00.127Z,20.11
2022-10-23T16:52:28.108Z,20.19
2022-10-23T16:54:56.515Z,20.16
2022-10-23T16:57:23.520Z,20.31
2022-10-23T16:59:58.777Z,20.42
2022-10-23T17:02:25.817Z,20.28
2022-10-23T17:04:52.700Z,20.28
2022-10-23T17:07:19.522Z,20.48
2022-10-23T17:09:46.995Z,20.32
2022-10-23T17:12:16.366Z,20.35
2022-10-23T17:14:42.847Z,20.60
2022-10-23T17:17:09.630Z,20.27
2022-10-23T17:19:45.249Z,20.37
2022-10-23T17:22:16.393Z,20.32
2022-10-23T17:24:47.396Z,20.35
2022-10-23T17:27:24.851Z,20.81
2022-10-23T17:29:51.534Z,20.55
2022-10-23T17:32:19.505Z,20.42
2022-10-23T17:34:46.283Z,20.23
2022-10-23T17:37:13.042Z,20.38
2022-10-23T17:39:41.059Z,20.47
2022-10-23T17:42:08.061Z,20.58
2022-10-23T17:44:36.407Z,20.35
2022-10-23T17:47:03.251Z,20.23
2022-10-23T17:49:30.034Z,20.18
2022-10-23T17:52:04.857Z,20.29
2022-10-23T17:54:31.610Z,20.33
2022-10-23T17:57:00.719Z,19.99
2022-10-23T17:59:29.818Z,20.34
2022-10-23T18:01:58.244Z,20.11
2022-10-23T18:04:25.091Z,19.94
2022-10-23T18:06:53.730Z,20.31
2022-10-23T18:09:21.605Z,19.86
2022-10-23T18:11:54.483Z,20.15
2022-10-23T18:14:22.034Z,20.04
2022-10-23T18:16:49.641Z,20.07
2022-10-23T18:19:18.923Z,20.28
2022-10-23T18:21:46.027Z,20.14
2022-10-23T18:24:13.135Z,20.26
2022-10-23T18:26:42.247Z,20.01
2022-10-23T18:29:16.463Z,19.97
2022-10-23T18:31:44.255Z,19.86
2022-10-23T18:34:15.848Z,20.12
2022-10-23T18:36:43.980Z,20.01
2022-10-23T18:39:13.806Z,20.11
2022-10-23T18:41:45.231Z,19.73
2022-10-23T18:44:18.026Z,19.87
2022-10-23T18:46:45.304Z,19.90
2022-10-23T18:49:19.481Z,19.92
2022-10-23T18:51:47.948Z,19.75
2022-10-23T18:54:16.961Z,19.87
2022-10-23T18:56:47.387Z,19.70
2022-10-23T18:59:17.522Z,19.70
2022-10-23T19:01:44.541Z,19.66
2022-10-23T19:04:11.559Z,19.81
2022-10-23T19:06:52.384Z,19.61
2022-10-23T19:09:20.049Z,19.48
2022-10-23T19:11:46.915Z,19.67
2022-10-23T19:14:13.949Z,19.59
2022-10-23T19:16:44.430Z,19.03
2022-10-23T19:19:15.512Z,19.28
2022-10-23T19:21:43.702Z,18.91
2022-10-23T19:24:17.717Z,18.83
2022-10-23T19:26:44.743Z,18.94
2022-10-23T19:29:15.683Z,18.73
2022-10-23T19:31:42.647Z,18.85
2022-10-23T19:34:09.342Z,18.82
2022-10-23T19:36:36.058Z,19.05
2022-10-23T19:39:02.867Z,18.90
2022-10-23T19:41:30.949Z,19.03
2022-10-23T19:43:57.857Z,18.90
2022-10-23T19:46:24.860Z,18.83
2022-10-23T19:48:57.489Z,19.07
2022-10-23T19:51:49.673Z,19.16
2022-10-23T19:54:17.660Z,18.96
2022-10-23T19:56:45.717Z,18.70
2022-10-23T19:59:12.441Z,18.77
2022-10-23T20:01:41.864Z,18.44
2022-10-23T20:04:13.480Z,18.49
2022-10-23T20:06:40.196Z,18.48
2022-10-23T20:09:08.665Z,18.57
2022-10-23T20:11:36.809Z,18.63
2022-10-23T20:14:04.965Z,18.47
2022-10-23T20:16:37.803Z,18.85
2022-10-23T20:19:06.238Z,18.68
2022-10-23T20:21:35.251Z,18.85
2022-10-23T20:24:02.315Z,18.70
2022-10-23T20:26:29.169Z,18.59
2022-10-23T20:28:56.623Z,18.91
2022-10-23T20:31:33.016Z,18.94
2022-10-23T20:33:59.783Z,18.50
2022-10-23T20:36:28.068Z,18.97
2022-10-23T20:38:55.818Z,18.52
2022-10-23T20:41:23.018Z,18.86
2022-10-23T20:43:49.681Z,18.88
2022-10-23T20:46:16.395Z,18.53
2022-10-23T20:48:45.880Z,18.65
2022-10-23T20:51:14.747Z,18.61
2022-10-23T20:53:42.459Z,18.36
2022-10-23T20:56:12.142Z,18.07
2022-10-23T20:58:38.926Z,18.01
2022-10-23T21:01:15.846Z,17.87
2022-10-23T21:03:43.651Z,17.94
2022-10-23T21:06:13.546Z,17.80
2022-10-23T21:08:41.271Z,17.66
2022-10-23T21:11:11.247Z,17.80
2022-10-23T21:13:38.528Z,17.95
2022-10-23T21:16:12.642Z,17.67
2022-10-23T21:18:46.025Z,17.87
2022-10-23T21:21:16.676Z,17.88
2022-10-23T21:23:50.796Z,17.96
2022-10-23T21:26:21.464Z,17.76
2022-10-23T21:28:56.325Z,18.20
2022-10-23T21:31:36.900Z,18.20
2022-10-23T21:34:03.891Z,18.16
2022-10-23T21:36:34.143Z,17.86
2022-10-23T21:39:04.358Z,18.13
2022-10-23T21:41:32.596Z,18.16
2022-10-23T21:44:01.599Z,18.15
2022-10-23T21:46:30.060Z,18.02
2022-10-23T21:48:58.823Z,18.13
2022-10-23T21:51:28.192Z,17.71
2022-10-23T21:53:56.576Z,17.79
2022-10-23T21:56:28.474Z,17.41
2022-10-23T21:58:56.755Z,17.73
2022-10-23T22:01:24.415Z,17.84
2022-10-23T22:03:51.649Z,17.34
2022-10-23T22:06:20.956Z,17.34
2022-10-23T22:08:47.788Z,17.57
2022-10-23T22:11:16.602Z,17.05
2022-10-23T22:13:44.363Z,16.94
2022-10-23T22:16:12.653Z,17.15
2022-10-23T22:18:39.721Z,17.47
2022-10-23T22:21:09.012Z,17.00
2022-10-23T22:23:36.647Z,17.47
2022-10-23T22:26:05.769Z,17.46
2022-10-23T22:28:34.153Z,17.44
2022-10-23T22:31:01.404Z,16.69
2022-10-23T22:33:28.230Z,16.57
2022-10-23T22:36:01.153Z,16.98
2022-10-23T22:38:27.865Z,16.93
2022-10-23T22:40:54.619Z,17.47
2022-10-23T22:43:21.307Z,17.19
2022-10-23T22:45:49.519Z,17.20
2022-10-23T22:48:16.390Z,16.98
2022-10-23T22:50:43.216Z,17.23
2022-10-23T22:53:09.941Z,17.47
2022-10-23T22:55:41.406Z,17.33
2022-10-23T22:58:08.120Z,17.23
2022-10-23T23:00:34.949Z,17.50
2022-10-23T23:03:03.014Z,17.41
2022-10-23T23:05:29.996Z,17.16
2022-10-23T23:07:57.042Z,16.86
2022-10-23T23:10:23.725Z,16.62
2022-10-23T23:12:50.855Z,16.72
2022-10-23T23:15:18.292Z,16.97
2022-10-23T23:17:45.319Z,17.28
2022-10-23T23:20:13.692Z,17.36
2022-10-23T23:22:40.625Z,16.75
2022-10-23T23:25:09.459Z,16.63
2022-10-23T23:27:36.209Z,17.01
2022-10-23T23:30:03.273Z,17.00
2022-10-23T23:32:29.933Z,17.26
2022-10-23T23:34:58.582Z,17.02
2022-10-23T23:37:26.813Z,16.98
2022-10-23T23:39:53.700Z,17.25
2022-10-23T23:42:20.428Z,17.16
2022-10-23T23:44:55.954Z,17.48
2022-10-23T23:47:29.757Z,17.21
2022-10-23T23:49:56.615Z,17.40
2022-10-23T23:52:23.302Z,17.47
2022-10-23T23:54:51.615Z,17.34
2022-10-23T23:57:18.351Z,17.57
2022-10-23T23:59:45.212Z,17.41
